sensor_id;sensor_type;location;lat;lon;timestamp;temperature;humidity
3994;DHT22;2011;48.238;13.948;2023-12-20T00:01:00;-0.80;99.90
3994;DHT22;2011;48.238;13.948;2023-12-20T00:03:27;-0.80;99.90
3994;DHT22;2011;48.238;13.948;2023-12-20T00:05:54;-0.80;99.90
3994;DHT22;2011;48.238;13.948;2023-12-20T00:08:22;-0.70;99.90
3994;DHT22;2011;48.238;13.948;2023-12-20T00:10:48;-0.70;99.90
3994;DHT22;2011;48.238;13.948;2023-12-20T00:13:17;-0.60;99.90
3994;DHT22;2011;48.238;13.948;2023-12-20T00:15:43;-0.60;99.90
3994;DHT22;2011;48.238;13.948;2023-12-20T00:18:10;-0.50;99.90
3994;DHT22;2011;48.238;13.948;2023-12-20T00:20:37;-0.50;99.90
3994;DHT22;2011;48.238;13.948;2023-12-20T00:23:04;-0.40;99.90
3994;DHT22;2011;48.238;13.948;2023-12-20T00:25:31;-0.40;99.90
3994;DHT22;2011;48.238;13.948;2023-12-20T00:27:58;-0.40;99.90
3994;DHT22;2011;48.238;13.948;2023-12-20T00:30:26;-0.30;99.90
3994;DHT22;2011;48.238;13.948;2023-12-20T00:32:53;-0.30;99.90
3994;DHT22;2011;48.238;13.948;2023-12-20T00:35:20;-0.20;99.90
3994;DHT22;2011;48.238;13.948;2023-12-20T00:37:47;-0.10;99.90
3994;DHT22;2011;48.238;13.948;2023-12-20T00:40:14;-0.10;99.90
3994;DHT22;2011;48.238;13.948;2023-12-20T00:42:41;0.00;99.90
3994;DHT22;2011;48.238;13.948;2023-12-20T00:45:08;0.00;99.90
3994;DHT22;2011;48.238;13.948;2023-12-20T00:47:37;0.10;99.90
3994;DHT22;2011;48.238;13.948;2023-12-20T00:50:04;0.10;99.90
3994;DHT22;2011;48.238;13.948;2023-12-20T00:52:31;0.10;99.90
3994;DHT22;2011;48.238;13.948;2023-12-20T00:54:58;0.10;99.90
3994;DHT22;2011;48.238;13.948;2023-12-20T00:57:25;0.10;99.90
3994;DHT22;2011;48.238;13.948;2023-12-20T00:59:52;0.20;99.90
3994;DHT22;2011;48.238;13.948;2023-12-20T01:02:19;0.20;99.90
3994;DHT22;2011;48.238;13.948;2023-12-20T01:04:47;0.20;99.90
3994;DHT22;2011;48.238;13.948;2023-12-20T01:07:14;0.20;99.90
3994;DHT22;2011;48.238;13.948;2023-12-20T01:09:41;0.20;99.90
3994;DHT22;2011;48.238;13.948;2023-12-20T01:12:08;0.20;99.90
3994;DHT22;2011;48.238;13.948;2023-12-20T01:14:35;0.30;99.90
3994;DHT22;2011;48.238;13.948;2023-12-20T01:17:02;0.50;99.90
3994;DHT22;2011;48.238;13.948;2023-12-20T01:19:29;0.60;99.90
3994;DHT22;2011;48.238;13.948;2023-12-20T01:21:57;0.80;99.90
3994;DHT22;2011;48.238;13.948;2023-12-20T01:24:24;0.90;99.90
3994;DHT22;2011;48.238;13.948;2023-12-20T01:26:51;1.00;99.90
3994;DHT22;2011;48.238;13.948;2023-12-20T01:29:18;1.20;99.90
3994;DHT22;2011;48.238;13.948;2023-12-20T01:31:45;1.40;99.90
3994;DHT22;2011;48.238;13.948;2023-12-20T01:34:12;1.50;99.90
3994;DHT22;2011;48.238;13.948;2023-12-20T01:36:39;1.60;99.90
3994;DHT22;2011;48.238;13.948;2023-12-20T01:39:07;1.70;99.90
3994;DHT22;2011;48.238;13.948;2023-12-20T01:41:34;1.70;99.90
3994;DHT22;2011;48.238;13.948;2023-12-20T01:44:01;1.60;99.90
3994;DHT22;2011;48.238;13.948;2023-12-20T01:46:27;1.50;99.90
3994;DHT22;2011;48.238;13.948;2023-12-20T01:48:54;1.30;99.90
3994;DHT22;2011;48.238;13.948;2023-12-20T01:51:21;1.30;99.90
3994;DHT22;2011;48.238;13.948;2023-12-20T01:53:49;1.30;99.90
3994;DHT22;2011;48.238;13.948;2023-12-20T01:56:17;1.30;99.90
3994;DHT22;2011;48.238;13.948;2023-12-20T01:58:46;1.30;99.90
3994;DHT22;2011;48.238;13.948;2023-12-20T02:01:14;1.30;99.90
3994;DHT22;2011;48.238;13.948;2023-12-20T02:03:42;1.30;99.90
3994;DHT22;2011;48.238;13.948;2023-12-20T02:06:09;1.20;99.90
3994;DHT22;2011;48.238;13.948;2023-12-20T02:08:36;1.30;99.90
3994;DHT22;2011;48.238;13.948;2023-12-20T02:11:03;1.20;99.90
3994;DHT22;2011;48.238;13.948;2023-12-20T02:13:32;1.20;99.90
3994;DHT22;2011;48.238;13.948;2023-12-20T02:15:59;1.20;99.90
3994;DHT22;2011;48.238;13.948;2023-12-20T02:18:26;1.20;99.90
3994;DHT22;2011;48.238;13.948;2023-12-20T02:20:53;1.20;99.90
3994;DHT22;2011;48.238;13.948;2023-12-20T02:23:22;1.30;99.90
3994;DHT22;2011;48.238;13.948;2023-12-20T02:25:48;1.20;99.90
3994;DHT22;2011;48.238;13.948;2023-12-20T02:28:16;1.20;99.90
3994;DHT22;2011;48.238;13.948;2023-12-20T02:30:43;1.20;99.90
3994;DHT22;2011;48.238;13.948;2023-12-20T02:33:11;1.20;99.90
3994;DHT22;2011;48.238;13.948;2023-12-20T02:35:38;1.20;99.90
3994;DHT22;2011;48.238;13.948;2023-12-20T02:38:05;1.20;99.90
3994;DHT22;2011;48.238;13.948;2023-12-20T02:40:33;1.20;99.90
3994;DHT22;2011;48.238;13.948;2023-12-20T02:43:00;1.20;99.90
3994;DHT22;2011;48.238;13.948;2023-12-20T02:45:27;1.30;99.90
3994;DHT22;2011;48.238;13.948;2023-12-20T02:47:54;1.30;99.90
3994;DHT22;2011;48.238;13.948;2023-12-20T02:50:21;1.30;99.90
3994;DHT22;2011;48.238;13.948;2023-12-20T02:52:48;1.30;99.90
3994;DHT22;2011;48.238;13.948;2023-12-20T02:55:15;1.30;99.90
3994;DHT22;2011;48.238;13.948;2023-12-20T02:57:43;1.40;99.90
3994;DHT22;2011;48.238;13.948;2023-12-20T03:00:11;1.40;99.90
3994;DHT22;2011;48.238;13.948;2023-12-20T03:02:38;1.40;99.90
3994;DHT22;2011;48.238;13.948;2023-12-20T03:05:06;1.40;99.90
3994;DHT22;2011;48.238;13.948;2023-12-20T03:07:32;1.40;99.90
3994;DHT22;2011;48.238;13.948;2023-12-20T03:09:59;1.40;99.90
3994;DHT22;2011;48.238;13.948;2023-12-20T03:12:26;1.40;99.90
3994;DHT22;2011;48.238;13.948;2023-12-20T03:14:54;1.50;99.90
3994;DHT22;2011;48.238;13.948;2023-12-20T03:17:21;1.40;99.90
3994;DHT22;2011;48.238;13.948;2023-12-20T03:19:48;1.50;99.90
3994;DHT22;2011;48.238;13.948;2023-12-20T03:22:15;1.40;99.90
3994;DHT22;2011;48.238;13.948;2023-12-20T03:24:42;1.40;99.90
3994;DHT22;2011;48.238;13.948;2023-12-20T03:27:09;1.40;99.90
3994;DHT22;2011;48.238;13.948;2023-12-20T03:29:36;1.40;99.90
3994;DHT22;2011;48.238;13.948;2023-12-20T03:32:04;1.40;99.90
3994;DHT22;2011;48.238;13.948;2023-12-20T03:34:31;1.40;99.90
3994;DHT22;2011;48.238;13.948;2023-12-20T03:36:58;1.40;99.90
3994;DHT22;2011;48.238;13.948;2023-12-20T03:39:25;1.50;99.90
3994;DHT22;2011;48.238;13.948;2023-12-20T03:41:52;1.40;99.90
3994;DHT22;2011;48.238;13.948;2023-12-20T03:44:19;1.50;99.90
3994;DHT22;2011;48.238;13.948;2023-12-20T03:46:46;1.50;99.90
3994;DHT22;2011;48.238;13.948;2023-12-20T03:49:16;1.50;99.90
3994;DHT22;2011;48.238;13.948;2023-12-20T03:51:42;1.50;99.90
3994;DHT22;2011;48.238;13.948;2023-12-20T03:54:09;1.50;99.90
3994;DHT22;2011;48.238;13.948;2023-12-20T03:56:36;1.50;99.90
3994;DHT22;2011;48.238;13.948;2023-12-20T03:59:03;1.50;99.90
3994;DHT22;2011;48.238;13.948;2023-12-20T04:01:30;1.50;99.90
3994;DHT22;2011;48.238;13.948;2023-12-20T04:03:57;1.50;99.90
3994;DHT22;2011;48.238;13.948;2023-12-20T04:06:25;1.50;99.90
3994;DHT22;2011;48.238;13.948;2023-12-20T04:08:52;1.60;99.90
3994;DHT22;2011;48.238;13.948;2023-12-20T04:11:19;1.60;99.90
3994;DHT22;2011;48.238;13.948;2023-12-20T04:13:46;1.60;99.90
3994;DHT22;2011;48.238;13.948;2023-12-20T04:16:13;1.60;99.90
3994;DHT22;2011;48.238;13.948;2023-12-20T04:18:39;1.60;99.90
3994;DHT22;2011;48.238;13.948;2023-12-20T04:21:06;1.60;99.90
3994;DHT22;2011;48.238;13.948;2023-12-20T04:23:34;1.50;99.90
3994;DHT22;2011;48.238;13.948;2023-12-20T04:26:02;1.50;99.90
3994;DHT22;2011;48.238;13.948;2023-12-20T04:28:28;1.40;99.90
3994;DHT22;2011;48.238;13.948;2023-12-20T04:30:56;1.40;99.90
3994;DHT22;2011;48.238;13.948;2023-12-20T04:33:23;1.40;99.90
3994;DHT22;2011;48.238;13.948;2023-12-20T04:35:50;1.40;99.90
3994;DHT22;2011;48.238;13.948;2023-12-20T04:38:17;1.40;99.90
3994;DHT22;2011;48.238;13.948;2023-12-20T04:40:45;1.50;99.90
3994;DHT22;2011;48.238;13.948;2023-12-20T04:43:12;1.50;99.90
3994;DHT22;2011;48.238;13.948;2023-12-20T04:45:39;1.50;99.90
3994;DHT22;2011;48.238;13.948;2023-12-20T04:48:06;1.60;99.90
3994;DHT22;2011;48.238;13.948;2023-12-20T04:50:33;1.60;99.90
3994;DHT22;2011;48.238;13.948;2023-12-20T04:53:00;1.60;99.90
3994;DHT22;2011;48.238;13.948;2023-12-20T04:55:27;1.70;99.90
3994;DHT22;2011;48.238;13.948;2023-12-20T04:57:55;1.60;99.90
3994;DHT22;2011;48.238;13.948;2023-12-20T05:00:22;1.60;99.90
3994;DHT22;2011;48.238;13.948;2023-12-20T05:02:49;1.60;99.90
3994;DHT22;2011;48.238;13.948;2023-12-20T05:05:16;1.60;99.90
3994;DHT22;2011;48.238;13.948;2023-12-20T05:07:43;1.60;99.90
3994;DHT22;2011;48.238;13.948;2023-12-20T05:10:10;1.60;99.90
3994;DHT22;2011;48.238;13.948;2023-12-20T05:12:37;1.60;99.90
3994;DHT22;2011;48.238;13.948;2023-12-20T05:15:07;1.50;99.90
3994;DHT22;2011;48.238;13.948;2023-12-20T05:17:33;1.50;99.90
3994;DHT22;2011;48.238;13.948;2023-12-20T05:20:00;1.50;99.90
3994;DHT22;2011;48.238;13.948;2023-12-20T05:22:27;1.50;99.90
3994;DHT22;2011;48.238;13.948;2023-12-20T05:24:54;1.60;99.90
3994;DHT22;2011;48.238;13.948;2023-12-20T05:27:21;1.60;99.90
3994;DHT22;2011;48.238;13.948;2023-12-20T05:29:48;1.60;99.90
3994;DHT22;2011;48.238;13.948;2023-12-20T05:32:17;1.60;99.90
3994;DHT22;2011;48.238;13.948;2023-12-20T05:34:44;1.60;99.90
3994;DHT22;2011;48.238;13.948;2023-12-20T05:37:10;1.60;99.90
3994;DHT22;2011;48.238;13.948;2023-12-20T05:39:37;1.70;99.90
3994;DHT22;2011;48.238;13.948;2023-12-20T05:42:05;1.80;99.90
3994;DHT22;2011;48.238;13.948;2023-12-20T05:44:31;1.80;99.90
3994;DHT22;2011;48.238;13.948;2023-12-20T05:46:58;1.80;99.90
3994;DHT22;2011;48.238;13.948;2023-12-20T05:49:27;1.80;99.90
3994;DHT22;2011;48.238;13.948;2023-12-20T05:51:56;1.90;99.90
3994;DHT22;2011;48.238;13.948;2023-12-20T05:54:23;2.20;99.90
3994;DHT22;2011;48.238;13.948;2023-12-20T05:56:50;2.40;99.90
3994;DHT22;2011;48.238;13.948;2023-12-20T05:59:17;2.60;99.90
3994;DHT22;2011;48.238;13.948;2023-12-20T06:01:44;2.80;99.90
3994;DHT22;2011;48.238;13.948;2023-12-20T06:04:11;3.00;99.90
3994;DHT22;2011;48.238;13.948;2023-12-20T06:06:42;3.10;99.90
3994;DHT22;2011;48.238;13.948;2023-12-20T06:09:10;3.20;99.90
3994;DHT22;2011;48.238;13.948;2023-12-20T06:11:37;3.30;99.90
3994;DHT22;2011;48.238;13.948;2023-12-20T06:14:04;3.40;99.90
3994;DHT22;2011;48.238;13.948;2023-12-20T06:16:31;3.50;99.90
3994;DHT22;2011;48.238;13.948;2023-12-20T06:18:58;3.70;99.90
3994;DHT22;2011;48.238;13.948;2023-12-20T06:21:25;3.80;99.90
3994;DHT22;2011;48.238;13.948;2023-12-20T06:23:54;3.90;99.90
3994;DHT22;2011;48.238;13.948;2023-12-20T06:26:21;3.90;99.90
3994;DHT22;2011;48.238;13.948;2023-12-20T06:28:48;4.00;99.90
3994;DHT22;2011;48.238;13.948;2023-12-20T06:31:15;4.10;99.90
3994;DHT22;2011;48.238;13.948;2023-12-20T06:33:43;4.10;99.90
3994;DHT22;2011;48.238;13.948;2023-12-20T06:36:11;4.10;99.90
3994;DHT22;2011;48.238;13.948;2023-12-20T06:38:38;4.10;99.90
3994;DHT22;2011;48.238;13.948;2023-12-20T06:41:07;4.10;99.90
3994;DHT22;2011;48.238;13.948;2023-12-20T06:43:34;4.10;99.90
3994;DHT22;2011;48.238;13.948;2023-12-20T06:46:01;4.10;99.90
3994;DHT22;2011;48.238;13.948;2023-12-20T06:48:28;4.00;99.90
3994;DHT22;2011;48.238;13.948;2023-12-20T06:50:55;4.00;99.90
3994;DHT22;2011;48.238;13.948;2023-12-20T06:53:22;4.10;99.90
3994;DHT22;2011;48.238;13.948;2023-12-20T06:55:49;4.10;99.90
3994;DHT22;2011;48.238;13.948;2023-12-20T06:58:17;4.10;99.90
3994;DHT22;2011;48.238;13.948;2023-12-20T07:00:44;4.10;99.90
3994;DHT22;2011;48.238;13.948;2023-12-20T07:03:11;4.10;99.90
3994;DHT22;2011;48.238;13.948;2023-12-20T07:05:38;4.10;99.90
3994;DHT22;2011;48.238;13.948;2023-12-20T07:08:06;4.10;99.90
3994;DHT22;2011;48.238;13.948;2023-12-20T07:10:33;4.10;99.90
3994;DHT22;2011;48.238;13.948;2023-12-20T07:13:01;4.10;99.90
3994;DHT22;2011;48.238;13.948;2023-12-20T07:15:29;4.10;99.90
3994;DHT22;2011;48.238;13.948;2023-12-20T07:17:56;4.10;99.90
3994;DHT22;2011;48.238;13.948;2023-12-20T07:20:25;4.00;99.90
3994;DHT22;2011;48.238;13.948;2023-12-20T07:22:52;4.00;99.90
3994;DHT22;2011;48.238;13.948;2023-12-20T07:25:19;4.00;99.90
3994;DHT22;2011;48.238;13.948;2023-12-20T07:27:46;4.00;99.90
3994;DHT22;2011;48.238;13.948;2023-12-20T07:30:14;3.90;99.90
3994;DHT22;2011;48.238;13.948;2023-12-20T07:32:42;3.90;99.90
3994;DHT22;2011;48.238;13.948;2023-12-20T07:35:09;3.90;99.90
3994;DHT22;2011;48.238;13.948;2023-12-20T07:37:36;3.90;99.90
3994;DHT22;2011;48.238;13.948;2023-12-20T07:40:04;3.90;99.90
3994;DHT22;2011;48.238;13.948;2023-12-20T07:42:31;3.90;99.90
3994;DHT22;2011;48.238;13.948;2023-12-20T07:44:58;3.90;99.90
3994;DHT22;2011;48.238;13.948;2023-12-20T07:47:25;3.90;99.90
3994;DHT22;2011;48.238;13.948;2023-12-20T07:49:54;3.90;99.90
3994;DHT22;2011;48.238;13.948;2023-12-20T07:52:21;4.00;99.90
3994;DHT22;2011;48.238;13.948;2023-12-20T07:54:48;4.00;99.90
3994;DHT22;2011;48.238;13.948;2023-12-20T07:57:15;3.90;99.90
3994;DHT22;2011;48.238;13.948;2023-12-20T07:59:42;4.00;99.90
3994;DHT22;2011;48.238;13.948;2023-12-20T08:02:10;3.90;99.90
3994;DHT22;2011;48.238;13.948;2023-12-20T08:04:37;4.00;99.90
3994;DHT22;2011;48.238;13.948;2023-12-20T08:07:06;4.00;99.90
3994;DHT22;2011;48.238;13.948;2023-12-20T08:09:33;4.00;99.90
3994;DHT22;2011;48.238;13.948;2023-12-20T08:12:03;4.00;99.90
3994;DHT22;2011;48.238;13.948;2023-12-20T08:14:29;4.00;99.90
3994;DHT22;2011;48.238;13.948;2023-12-20T08:16:57;4.00;99.90
3994;DHT22;2011;48.238;13.948;2023-12-20T08:19:24;4.10;99.90
3994;DHT22;2011;48.238;13.948;2023-12-20T08:21:51;4.10;99.90
3994;DHT22;2011;48.238;13.948;2023-12-20T08:24:19;4.10;99.90
3994;DHT22;2011;48.238;13.948;2023-12-20T08:26:46;4.10;99.90
3994;DHT22;2011;48.238;13.948;2023-12-20T08:29:13;4.10;99.90
3994;DHT22;2011;48.238;13.948;2023-12-20T08:31:40;4.20;99.90
3994;DHT22;2011;48.238;13.948;2023-12-20T08:34:07;4.20;99.90
3994;DHT22;2011;48.238;13.948;2023-12-20T08:36:34;4.30;99.90
3994;DHT22;2011;48.238;13.948;2023-12-20T08:39:00;4.20;99.90
3994;DHT22;2011;48.238;13.948;2023-12-20T08:41:30;4.30;99.90
3994;DHT22;2011;48.238;13.948;2023-12-20T08:43:57;4.30;99.90
3994;DHT22;2011;48.238;13.948;2023-12-20T08:46:24;4.30;99.90
3994;DHT22;2011;48.238;13.948;2023-12-20T08:48:51;4.30;99.90
3994;DHT22;2011;48.238;13.948;2023-12-20T08:51:18;4.40;99.90
3994;DHT22;2011;48.238;13.948;2023-12-20T08:53:46;4.40;99.90
3994;DHT22;2011;48.238;13.948;2023-12-20T08:56:14;4.40;99.90
3994;DHT22;2011;48.238;13.948;2023-12-20T08:58:42;4.40;99.90
3994;DHT22;2011;48.238;13.948;2023-12-20T09:01:09;4.40;99.90
3994;DHT22;2011;48.238;13.948;2023-12-20T09:03:36;4.50;99.90
3994;DHT22;2011;48.238;13.948;2023-12-20T09:06:03;4.50;99.90
3994;DHT22;2011;48.238;13.948;2023-12-20T09:08:31;4.50;99.90
3994;DHT22;2011;48.238;13.948;2023-12-20T09:10:58;4.50;99.90
3994;DHT22;2011;48.238;13.948;2023-12-20T09:13:24;4.50;99.90
3994;DHT22;2011;48.238;13.948;2023-12-20T09:15:55;4.50;99.90
3994;DHT22;2011;48.238;13.948;2023-12-20T09:18:22;4.50;99.90
3994;DHT22;2011;48.238;13.948;2023-12-20T09:20:49;4.50;99.90
3994;DHT22;2011;48.238;13.948;2023-12-20T09:23:16;4.60;99.90
3994;DHT22;2011;48.238;13.948;2023-12-20T09:25:43;4.60;99.90
3994;DHT22;2011;48.238;13.948;2023-12-20T09:28:10;4.60;99.90
3994;DHT22;2011;48.238;13.948;2023-12-20T09:30:37;4.60;99.90
3994;DHT22;2011;48.238;13.948;2023-12-20T09:33:07;4.70;99.90
3994;DHT22;2011;48.238;13.948;2023-12-20T09:35:33;4.70;99.90
3994;DHT22;2011;48.238;13.948;2023-12-20T09:38:00;4.70;99.90
3994;DHT22;2011;48.238;13.948;2023-12-20T09:40:28;4.70;99.90
3994;DHT22;2011;48.238;13.948;2023-12-20T09:42:57;4.70;99.90
3994;DHT22;2011;48.238;13.948;2023-12-20T09:45:25;4.70;99.90
3994;DHT22;2011;48.238;13.948;2023-12-20T09:47:53;4.70;99.90
3994;DHT22;2011;48.238;13.948;2023-12-20T09:50:22;4.70;99.90
3994;DHT22;2011;48.238;13.948;2023-12-20T09:52:50;4.80;99.90
3994;DHT22;2011;48.238;13.948;2023-12-20T09:55:18;4.80;99.90
3994;DHT22;2011;48.238;13.948;2023-12-20T09:57:45;4.80;99.90
3994;DHT22;2011;48.238;13.948;2023-12-20T10:00:13;4.90;99.90
3994;DHT22;2011;48.238;13.948;2023-12-20T10:02:45;4.90;99.90
3994;DHT22;2011;48.238;13.948;2023-12-20T10:05:18;4.90;99.90
3994;DHT22;2011;48.238;13.948;2023-12-20T10:07:47;4.90;99.90
3994;DHT22;2011;48.238;13.948;2023-12-20T10:10:14;4.90;99.90
3994;DHT22;2011;48.238;13.948;2023-12-20T10:13:01;4.90;99.90
3994;DHT22;2011;48.238;13.948;2023-12-20T10:15:28;5.00;99.90
3994;DHT22;2011;48.238;13.948;2023-12-20T10:17:56;5.00;99.90
3994;DHT22;2011;48.238;13.948;2023-12-20T10:20:23;5.00;99.90
3994;DHT22;2011;48.238;13.948;2023-12-20T10:22:52;5.00;99.90
3994;DHT22;2011;48.238;13.948;2023-12-20T10:25:20;5.10;99.90
3994;DHT22;2011;48.238;13.948;2023-12-20T10:27:47;5.00;99.90
3994;DHT22;2011;48.238;13.948;2023-12-20T10:30:14;5.00;99.90
3994;DHT22;2011;48.238;13.948;2023-12-20T10:32:41;5.00;99.90
3994;DHT22;2011;48.238;13.948;2023-12-20T10:35:09;5.10;99.90
3994;DHT22;2011;48.238;13.948;2023-12-20T10:37:36;5.10;99.90
3994;DHT22;2011;48.238;13.948;2023-12-20T10:40:06;5.10;99.90
3994;DHT22;2011;48.238;13.948;2023-12-20T10:42:34;5.00;99.90
3994;DHT22;2011;48.238;13.948;2023-12-20T10:45:03;5.00;99.90
3994;DHT22;2011;48.238;13.948;2023-12-20T10:47:31;5.10;99.90
3994;DHT22;2011;48.238;13.948;2023-12-20T10:49:59;5.00;99.90
3994;DHT22;2011;48.238;13.948;2023-12-20T10:52:28;5.10;99.90
3994;DHT22;2011;48.238;13.948;2023-12-20T10:54:56;5.00;99.90
3994;DHT22;2011;48.238;13.948;2023-12-20T10:57:27;5.00;99.90
3994;DHT22;2011;48.238;13.948;2023-12-20T10:59:54;5.10;99.90
3994;DHT22;2011;48.238;13.948;2023-12-20T11:02:22;5.10;99.90
3994;DHT22;2011;48.238;13.948;2023-12-20T11:04:59;5.10;99.90
3994;DHT22;2011;48.238;13.948;2023-12-20T11:07:39;5.10;99.90
3994;DHT22;2011;48.238;13.948;2023-12-20T11:10:14;5.10;99.90
3994;DHT22;2011;48.238;13.948;2023-12-20T11:12:50;5.10;99.90
3994;DHT22;2011;48.238;13.948;2023-12-20T11:15:19;5.10;99.90
3994;DHT22;2011;48.238;13.948;2023-12-20T11:17:54;5.10;99.90
3994;DHT22;2011;48.238;13.948;2023-12-20T11:20:23;5.10;99.90
3994;DHT22;2011;48.238;13.948;2023-12-20T11:22:54;5.10;99.90
3994;DHT22;2011;48.238;13.948;2023-12-20T11:25:21;5.20;99.90
3994;DHT22;2011;48.238;13.948;2023-12-20T11:28:09;5.10;99.90
3994;DHT22;2011;48.238;13.948;2023-12-20T11:30:43;5.10;99.90
3994;DHT22;2011;48.238;13.948;2023-12-20T11:33:13;5.20;99.90
3994;DHT22;2011;48.238;13.948;2023-12-20T11:35:40;5.10;99.90
3994;DHT22;2011;48.238;13.948;2023-12-20T11:38:08;5.10;99.90
3994;DHT22;2011;48.238;13.948;2023-12-20T11:40:36;5.10;99.90
3994;DHT22;2011;48.238;13.948;2023-12-20T11:43:03;5.10;99.90
3994;DHT22;2011;48.238;13.948;2023-12-20T11:45:32;5.00;99.90
3994;DHT22;2011;48.238;13.948;2023-12-20T11:48:01;5.10;99.90
3994;DHT22;2011;48.238;13.948;2023-12-20T11:50:29;5.10;99.90
3994;DHT22;2011;48.238;13.948;2023-12-20T11:52:56;5.10;99.90
3994;DHT22;2011;48.238;13.948;2023-12-20T11:55:24;5.10;99.90
3994;DHT22;2011;48.238;13.948;2023-12-20T11:57:51;5.10;99.90
3994;DHT22;2011;48.238;13.948;2023-12-20T12:00:18;5.10;99.90
3994;DHT22;2011;48.238;13.948;2023-12-20T12:02:57;5.10;99.90
3994;DHT22;2011;48.238;13.948;2023-12-20T12:05:24;5.20;99.90
3994;DHT22;2011;48.238;13.948;2023-12-20T12:07:51;5.20;99.90
3994;DHT22;2011;48.238;13.948;2023-12-20T12:10:18;5.20;99.90
3994;DHT22;2011;48.238;13.948;2023-12-20T12:12:46;5.20;99.90
3994;DHT22;2011;48.238;13.948;2023-12-20T12:15:14;5.30;99.90
3994;DHT22;2011;48.238;13.948;2023-12-20T12:17:41;5.40;99.90
3994;DHT22;2011;48.238;13.948;2023-12-20T12:20:09;5.30;99.90
3994;DHT22;2011;48.238;13.948;2023-12-20T12:22:37;5.30;99.90
3994;DHT22;2011;48.238;13.948;2023-12-20T12:25:11;5.30;99.90
3994;DHT22;2011;48.238;13.948;2023-12-20T12:27:40;5.30;99.90
3994;DHT22;2011;48.238;13.948;2023-12-20T12:30:09;5.30;99.90
3994;DHT22;2011;48.238;13.948;2023-12-20T12:32:38;5.30;99.90
3994;DHT22;2011;48.238;13.948;2023-12-20T12:35:06;5.30;99.90
3994;DHT22;2011;48.238;13.948;2023-12-20T12:37:38;5.30;99.90
3994;DHT22;2011;48.238;13.948;2023-12-20T12:40:06;5.30;99.90
3994;DHT22;2011;48.238;13.948;2023-12-20T12:42:33;5.30;99.90
3994;DHT22;2011;48.238;13.948;2023-12-20T12:45:00;5.30;99.90
3994;DHT22;2011;48.238;13.948;2023-12-20T12:47:27;5.30;99.90
3994;DHT22;2011;48.238;13.948;2023-12-20T12:49:54;5.30;99.90
3994;DHT22;2011;48.238;13.948;2023-12-20T12:52:21;5.30;99.90
3994;DHT22;2011;48.238;13.948;2023-12-20T12:54:49;5.30;99.90
3994;DHT22;2011;48.238;13.948;2023-12-20T12:57:16;5.30;99.90
3994;DHT22;2011;48.238;13.948;2023-12-20T12:59:44;5.50;99.90
3994;DHT22;2011;48.238;13.948;2023-12-20T13:02:11;5.50;99.90
3994;DHT22;2011;48.238;13.948;2023-12-20T13:04:38;5.60;99.90
3994;DHT22;2011;48.238;13.948;2023-12-20T13:07:05;5.60;99.90
3994;DHT22;2011;48.238;13.948;2023-12-20T13:09:32;5.50;99.90
3994;DHT22;2011;48.238;13.948;2023-12-20T13:12:01;5.60;99.90
3994;DHT22;2011;48.238;13.948;2023-12-20T13:14:30;5.60;99.90
3994;DHT22;2011;48.238;13.948;2023-12-20T13:16:58;5.80;99.90
3994;DHT22;2011;48.238;13.948;2023-12-20T13:19:25;5.80;99.90
3994;DHT22;2011;48.238;13.948;2023-12-20T13:21:52;5.90;99.90
3994;DHT22;2011;48.238;13.948;2023-12-20T13:24:20;6.10;99.90
3994;DHT22;2011;48.238;13.948;2023-12-20T13:26:47;6.00;99.90
3994;DHT22;2011;48.238;13.948;2023-12-20T13:29:15;6.00;99.90
3994;DHT22;2011;48.238;13.948;2023-12-20T13:31:42;6.00;99.90
3994;DHT22;2011;48.238;13.948;2023-12-20T13:34:09;6.00;99.90
3994;DHT22;2011;48.238;13.948;2023-12-20T13:36:36;6.00;99.90
3994;DHT22;2011;48.238;13.948;2023-12-20T13:39:03;6.00;99.90
3994;DHT22;2011;48.238;13.948;2023-12-20T13:41:30;6.00;99.90
3994;DHT22;2011;48.238;13.948;2023-12-20T13:43:57;6.00;99.90
3994;DHT22;2011;48.238;13.948;2023-12-20T13:46:25;6.10;99.90
3994;DHT22;2011;48.238;13.948;2023-12-20T13:48:53;6.10;99.90
3994;DHT22;2011;48.238;13.948;2023-12-20T13:51:20;6.10;99.90
3994;DHT22;2011;48.238;13.948;2023-12-20T13:53:47;6.20;99.90
3994;DHT22;2011;48.238;13.948;2023-12-20T13:56:15;6.20;99.90
3994;DHT22;2011;48.238;13.948;2023-12-20T13:58:42;6.30;99.90
3994;DHT22;2011;48.238;13.948;2023-12-20T14:01:09;6.20;99.90
3994;DHT22;2011;48.238;13.948;2023-12-20T14:03:38;6.10;99.90
3994;DHT22;2011;48.238;13.948;2023-12-20T14:06:06;6.10;99.90
3994;DHT22;2011;48.238;13.948;2023-12-20T14:08:33;6.10;99.90
3994;DHT22;2011;48.238;13.948;2023-12-20T14:11:01;6.10;99.90
3994;DHT22;2011;48.238;13.948;2023-12-20T14:13:29;6.00;99.90
3994;DHT22;2011;48.238;13.948;2023-12-20T14:15:57;6.00;99.90
3994;DHT22;2011;48.238;13.948;2023-12-20T14:18:25;5.90;99.90
3994;DHT22;2011;48.238;13.948;2023-12-20T14:20:54;5.90;99.90
3994;DHT22;2011;48.238;13.948;2023-12-20T14:23:21;5.90;99.90
3994;DHT22;2011;48.238;13.948;2023-12-20T14:25:48;5.90;99.90
3994;DHT22;2011;48.238;13.948;2023-12-20T14:28:15;5.80;99.90
3994;DHT22;2011;48.238;13.948;2023-12-20T14:30:42;5.80;99.90
3994;DHT22;2011;48.238;13.948;2023-12-20T14:33:09;5.80;99.90
3994;DHT22;2011;48.238;13.948;2023-12-20T14:35:36;5.80;99.90
3994;DHT22;2011;48.238;13.948;2023-12-20T14:38:04;5.70;99.90
3994;DHT22;2011;48.238;13.948;2023-12-20T14:40:31;5.70;99.90
3994;DHT22;2011;48.238;13.948;2023-12-20T14:42:58;5.70;99.90
3994;DHT22;2011;48.238;13.948;2023-12-20T14:45:25;5.70;99.90
3994;DHT22;2011;48.238;13.948;2023-12-20T14:47:53;5.70;99.90
3994;DHT22;2011;48.238;13.948;2023-12-20T14:50:20;5.60;99.90
3994;DHT22;2011;48.238;13.948;2023-12-20T14:52:47;5.60;99.90
3994;DHT22;2011;48.238;13.948;2023-12-20T14:55:15;5.50;99.90
3994;DHT22;2011;48.238;13.948;2023-12-20T14:57:42;5.50;99.90
3994;DHT22;2011;48.238;13.948;2023-12-20T15:00:09;5.40;99.90
3994;DHT22;2011;48.238;13.948;2023-12-20T15:02:40;5.40;99.90
3994;DHT22;2011;48.238;13.948;2023-12-20T15:05:07;5.40;99.90
3994;DHT22;2011;48.238;13.948;2023-12-20T15:07:35;5.30;99.90
3994;DHT22;2011;48.238;13.948;2023-12-20T15:10:04;5.30;99.90
3994;DHT22;2011;48.238;13.948;2023-12-20T15:12:32;5.30;99.90
3994;DHT22;2011;48.238;13.948;2023-12-20T15:15:00;5.30;99.90
3994;DHT22;2011;48.238;13.948;2023-12-20T15:17:27;5.30;99.90
3994;DHT22;2011;48.238;13.948;2023-12-20T15:19:55;5.30;99.90
3994;DHT22;2011;48.238;13.948;2023-12-20T15:22:22;5.20;99.90
3994;DHT22;2011;48.238;13.948;2023-12-20T15:24:51;5.20;99.90
3994;DHT22;2011;48.238;13.948;2023-12-20T15:27:20;5.10;99.90
3994;DHT22;2011;48.238;13.948;2023-12-20T15:29:48;5.10;99.90
3994;DHT22;2011;48.238;13.948;2023-12-20T15:32:17;5.10;99.90
3994;DHT22;2011;48.238;13.948;2023-12-20T15:34:45;5.00;99.90
3994;DHT22;2011;48.238;13.948;2023-12-20T15:37:12;5.00;99.90
3994;DHT22;2011;48.238;13.948;2023-12-20T15:39:41;4.90;99.90
3994;DHT22;2011;48.238;13.948;2023-12-20T15:42:08;4.90;99.90
3994;DHT22;2011;48.238;13.948;2023-12-20T15:44:35;4.90;99.90
3994;DHT22;2011;48.238;13.948;2023-12-20T15:47:04;4.90;99.90
3994;DHT22;2011;48.238;13.948;2023-12-20T15:49:31;4.90;99.90
3994;DHT22;2011;48.238;13.948;2023-12-20T15:51:58;4.90;99.90
3994;DHT22;2011;48.238;13.948;2023-12-20T15:54:25;4.90;99.90
3994;DHT22;2011;48.238;13.948;2023-12-20T15:56:52;4.90;99.90
3994;DHT22;2011;48.238;13.948;2023-12-20T15:59:19;4.90;99.90
3994;DHT22;2011;48.238;13.948;2023-12-20T16:01:46;4.90;99.90
3994;DHT22;2011;48.238;13.948;2023-12-20T16:04:15;4.80;99.90